createdAt,value
2022-08-08T00:01:18.339Z,67.72
2022-08-08T00:04:07.974Z,68.36
2022-08-08T00:06:49.979Z,68.17
2022-08-08T00:09:16.956Z,68.21
2022-08-08T00:12:09.567Z,68.33
2022-08-08T00:14:59.331Z,68.90
2022-08-08T00:17:48.227Z,69.34
2022-08-08T00:20:32.626Z,69.66
2022-08-08T00:23:15.002Z,69.96
2022-08-08T00:25:46.261Z,69.99
2022-08-08T00:28:35.828Z,70.70
2022-08-08T00:32:20.874Z,70.83
2022-08-08T00:34:20.321Z,71.38
2022-08-08T00:37:03.692Z,71.57
2022-08-08T00:41:08.977Z,71.83
2022-08-08T00:42:44.226Z,72.88
2022-08-08T00:45:38.754Z,73.58
2022-08-08T00:48:33.677Z,74.17
2022-08-08T00:51:09.783Z,74.23
2022-08-08T00:54:15.929Z,73.22
2022-08-08T00:57:01.679Z,73.72
2022-08-08T01:00:05.130Z,74.11
2022-08-08T01:04:01.821Z,74.60
2022-08-08T01:06:16.264Z,74.73
2022-08-08T01:09:35.940Z,74.28
2022-08-08T01:12:29.538Z,74.12
2022-08-08T01:15:54.365Z,73.58
2022-08-08T01:18:25.338Z,74.05
2022-08-08T01:22:03.682Z,74.88
2022-08-08T01:24:35.483Z,76.12
2022-08-08T01:27:21.216Z,76.29
2022-08-08T01:30:09.140Z,76.57
2022-08-08T01:33:27.912Z,77.07
2022-08-08T01:36:32.558Z,77.71
2022-08-08T01:39:05.182Z,77.61
2022-08-08T01:41:34.236Z,77.64
2022-08-08T01:44:18.860Z,78.55
2022-08-08T01:46:57.593Z,78.26
2022-08-08T01:49:40.727Z,78.64
2022-08-08T01:52:49.813Z,78.77
2022-08-08T01:56:27.795Z,78.81
2022-08-08T01:58:39.581Z,79.01
2022-08-08T02:02:00.109Z,79.50
2022-08-08T02:04:43.371Z,79.56
2022-08-08T02:07:19.364Z,80.27
2022-08-08T02:10:30.242Z,80.51
2022-08-08T02:13:53.194Z,80.45
2022-08-08T02:16:09.326Z,80.16
2022-08-08T02:18:59.504Z,79.50
2022-08-08T02:21:45.330Z,79.77
2022-08-08T02:24:22.782Z,80.31
2022-08-08T02:26:58.092Z,80.43
2022-08-08T02:30:04.371Z,81.61
2022-08-08T02:33:00.890Z,83.07
2022-08-08T02:36:03.991Z,84.58
2022-08-08T02:38:49.182Z,84.70
2022-08-08T02:42:03.726Z,84.51
2022-08-08T02:44:57.283Z,83.78
2022-08-08T02:48:03.057Z,83.43
2022-08-08T02:51:05.447Z,85.06
2022-08-08T02:54:18.978Z,85.94
2022-08-08T02:57:12.380Z,85.51
2022-08-08T03:00:30.938Z,85.93
2022-08-08T03:05:01.115Z,86.57
2022-08-08T03:06:41.838Z,86.79
2022-08-08T03:09:41.382Z,87.27
2022-08-08T03:12:36.431Z,88.93
2022-08-08T03:15:59.704Z,89.16
2022-08-08T03:19:02.370Z,90.03
2022-08-08T03:21:54.502Z,90.92
2022-08-08T03:24:23.580Z,90.42
2022-08-08T03:27:11.001Z,90.22
2022-08-08T03:29:55.064Z,90.30
2022-08-08T03:32:23.848Z,90.39
2022-08-08T03:34:56.947Z,90.88
2022-08-08T03:38:54.462Z,89.75
2022-08-08T03:40:30.291Z,90.42
2022-08-08T03:42:58.373Z,90.57
2022-08-08T03:46:05.979Z,91.08
2022-08-08T03:49:09.799Z,91.40
2022-08-08T03:51:19.326Z,92.20
2022-08-08T03:53:54.895Z,91.44
2022-08-08T03:56:31.541Z,86.94
2022-08-08T03:58:59.395Z,82.89
2022-08-08T04:02:22.832Z,82.10
2022-08-08T04:04:30.437Z,82.75
2022-08-08T04:07:01.278Z,84.37
2022-08-08T04:09:58.797Z,84.69
2022-08-08T04:12:16.701Z,84.60
2022-08-08T04:14:45.489Z,85.46
2022-08-08T04:17:15.550Z,83.89
2022-08-08T04:19:59.381Z,82.02
2022-08-08T04:22:29.938Z,84.29
2022-08-08T04:24:56.754Z,82.83
2022-08-08T04:28:03.327Z,81.43
2022-08-08T04:30:18.032Z,84.99
2022-08-08T04:32:48.237Z,85.52
2022-08-08T04:35:17.792Z,85.99
2022-08-08T04:37:46.912Z,84.19
2022-08-08T04:40:17.742Z,84.60
2022-08-08T04:42:56.099Z,86.46
2022-08-08T04:45:28.046Z,88.07
2022-08-08T04:47:55.258Z,88.89
2022-08-08T04:50:24.247Z,90.09
2022-08-08T04:53:00.662Z,91.49
2022-08-08T04:55:37.902Z,92.38
2022-08-08T04:58:18.504Z,92.00
2022-08-08T05:00:48.421Z,91.10
2022-08-08T05:03:19.015Z,90.70
2022-08-08T05:06:12.596Z,90.13
2022-08-08T05:08:45.459Z,88.53
2022-08-08T05:11:12.049Z,82.30
2022-08-08T05:13:58.008Z,77.91
2022-08-08T05:16:54.650Z,77.14
2022-08-08T05:20:12.278Z,78.72
2022-08-08T05:22:05.623Z,80.25
2022-08-08T05:24:33.834Z,81.81
2022-08-08T05:27:00.751Z,81.99
2022-08-08T05:29:29.143Z,82.46
2022-08-08T05:32:04.165Z,83.43
2022-08-08T05:34:41.708Z,83.56
2022-08-08T05:37:17.102Z,83.17
2022-08-08T05:39:55.335Z,80.44
2022-08-08T05:42:37.913Z,83.18
2022-08-08T05:45:10.222Z,80.56
2022-08-08T05:48:00.116Z,81.47
2022-08-08T05:50:33.524Z,80.21
2022-08-08T05:53:54.441Z,79.06
2022-08-08T05:56:11.576Z,78.88
2022-08-08T05:58:57.618Z,77.73
2022-08-08T06:01:51.186Z,76.79
2022-08-08T06:04:22.459Z,77.65
2022-08-08T06:06:52.707Z,78.04
2022-08-08T06:09:58.164Z,76.74
2022-08-08T06:12:18.677Z,75.77
2022-08-08T06:15:01.119Z,75.21
2022-08-08T06:18:18.109Z,75.59
2022-08-08T06:20:19.662Z,74.33
2022-08-08T06:22:50.032Z,74.60
2022-08-08T06:25:17.995Z,74.92
2022-08-08T06:27:54.193Z,74.77
2022-08-08T06:30:28.596Z,73.91
2022-08-08T06:32:58.130Z,72.11
2022-08-08T06:36:04.442Z,70.97
2022-08-08T06:38:25.056Z,70.70
2022-08-08T06:41:05.324Z,69.23
2022-08-08T06:43:36.145Z,69.71
2022-08-08T06:46:04.675Z,68.80
2022-08-08T06:48:36.382Z,67.72
2022-08-08T06:51:08.429Z,66.72
2022-08-08T06:53:39.904Z,65.83
2022-08-08T06:56:07.911Z,65.19
2022-08-08T06:58:35.414Z,65.71
2022-08-08T07:01:24.422Z,66.36
2022-08-08T07:04:41.592Z,65.27
2022-08-08T07:06:55.469Z,64.32
2022-08-08T07:09:41.760Z,65.24
2022-08-08T07:12:48.476Z,64.93
2022-08-08T07:15:31.808Z,64.89
2022-08-08T07:18:36.813Z,63.87
2022-08-08T07:21:04.899Z,63.23
2022-08-08T07:24:01.818Z,61.96
2022-08-08T07:26:32.779Z,61.72
2022-08-08T07:29:05.839Z,60.20
2022-08-08T07:31:38.591Z,59.58
2022-08-08T07:34:08.741Z,59.48
2022-08-08T07:36:37.269Z,59.39
2022-08-08T07:39:10.865Z,58.14
2022-08-08T07:42:03.816Z,59.28
2022-08-08T07:44:37.650Z,58.87
2022-08-08T07:47:08.947Z,57.98
2022-08-08T07:49:37.019Z,56.74
2022-08-08T07:52:13.465Z,55.61
2022-08-08T07:54:59.042Z,55.08
2022-08-08T07:58:06.671Z,54.48
2022-08-08T08:01:04.633Z,53.58
2022-08-08T08:04:13.703Z,51.89
2022-08-08T08:06:41.755Z,50.92
2022-08-08T08:09:18.808Z,49.73
2022-08-08T08:11:52.774Z,48.04
2022-08-08T08:14:36.439Z,46.80
2022-08-08T08:17:03.044Z,46.65
2022-08-08T08:19:45.517Z,45.81
2022-08-08T08:22:12.971Z,46.22
2022-08-08T08:24:46.960Z,45.69
2022-08-08T08:27:13.522Z,45.93
2022-08-08T08:29:42.248Z,45.99
2022-08-08T08:32:09.280Z,44.77
2022-08-08T08:34:38.025Z,45.35
2022-08-08T08:37:10.236Z,45.15
2022-08-08T08:40:00.096Z,45.54
2022-08-08T08:42:29.480Z,43.32
2022-08-08T08:45:22.048Z,43.89
2022-08-08T08:47:54.717Z,42.57
2022-08-08T08:50:33.770Z,42.31
2022-08-08T08:53:27.374Z,42.34
2022-08-08T08:56:02.484Z,41.77
2022-08-08T08:58:56.474Z,41.66
2022-08-08T09:01:28.334Z,41.73
2022-08-08T09:04:01.445Z,41.36
2022-08-08T09:06:34.222Z,40.16
2022-08-08T09:09:26.606Z,40.40
2022-08-08T09:12:07.510Z,40.91
2022-08-08T09:14:42.487Z,39.75
2022-08-08T09:17:17.433Z,38.52
2022-08-08T09:21:58.263Z,38.23
2022-08-08T09:22:34.946Z,37.26
2022-08-08T09:25:05.380Z,37.43
2022-08-08T09:27:42.035Z,36.56
2022-08-08T09:30:23.157Z,37.48
2022-08-08T09:33:13.085Z,36.46
2022-08-08T09:35:50.498Z,36.18
2022-08-08T09:38:35.034Z,35.87
2022-08-08T09:42:14.200Z,34.91
2022-08-08T09:44:55.400Z,33.94
2022-08-08T09:48:02.997Z,35.11
2022-08-08T09:50:15.097Z,34.01
2022-08-08T09:53:00.287Z,34.36
2022-08-08T09:56:02.771Z,32.77
2022-08-08T09:58:27.985Z,31.13
2022-08-08T10:01:15.392Z,30.22
2022-08-08T10:04:01.872Z,29.87
2022-08-08T10:06:32.335Z,31.35
2022-08-08T10:08:59.935Z,31.14
2022-08-08T10:12:28.026Z,30.87
2022-08-08T10:14:28.065Z,33.43
2022-08-08T10:17:38.692Z,33.67
2022-08-08T10:19:57.870Z,32.20
2022-08-08T10:22:26.961Z,32.50
2022-08-08T10:25:05.657Z,31.11
2022-08-08T10:27:44.546Z,32.22
2022-08-08T10:30:16.250Z,32.86
2022-08-08T10:33:00.761Z,33.64
2022-08-08T10:36:08.765Z,33.11
2022-08-08T10:38:20.979Z,34.28
2022-08-08T10:40:53.363Z,32.92
2022-08-08T10:43:23.017Z,33.32
2022-08-08T10:45:56.800Z,33.15
2022-08-08T10:48:37.231Z,33.39
2022-08-08T10:51:14.014Z,32.02
2022-08-08T10:53:57.813Z,31.00
2022-08-08T10:56:32.315Z,29.83
2022-08-08T10:59:04.068Z,29.87
2022-08-08T11:01:33.363Z,29.73
2022-08-08T11:04:02.344Z,29.12
2022-08-08T11:06:34.115Z,29.77
2022-08-08T11:09:02.614Z,31.41
2022-08-08T11:12:04.906Z,31.41
2022-08-08T11:14:33.832Z,31.30
2022-08-08T11:17:03.137Z,31.39
2022-08-08T11:19:33.704Z,31.97
2022-08-08T11:22:03.917Z,30.56
2022-08-08T11:24:35.790Z,30.23
2022-08-08T11:27:19.874Z,29.66
2022-08-08T11:30:04.521Z,28.25
2022-08-08T11:32:47.491Z,28.32
2022-08-08T11:35:27.201Z,28.46
2022-08-08T11:38:36.497Z,27.89
2022-08-08T11:40:51.876Z,28.87
2022-08-08T11:43:21.774Z,28.02
2022-08-08T11:46:09.798Z,27.88
2022-08-08T11:48:41.189Z,27.96
2022-08-08T11:51:38.750Z,27.79
2022-08-08T11:54:01.073Z,27.72
2022-08-08T11:56:34.548Z,27.78
2022-08-08T11:59:12.916Z,26.21
2022-08-08T12:01:39.549Z,26.95
2022-08-08T12:04:09.252Z,26.98
2022-08-08T12:06:36.759Z,26.19
2022-08-08T12:09:09.655Z,26.70
2022-08-08T12:11:44.281Z,26.07
2022-08-08T12:14:23.316Z,24.67
2022-08-08T12:16:51.408Z,25.00
2022-08-08T12:19:31.142Z,25.75
2022-08-08T12:22:09.422Z,24.98
2022-08-08T12:24:51.473Z,24.86
2022-08-08T12:27:22.530Z,24.84
2022-08-08T12:29:59.159Z,24.67
2022-08-08T12:32:26.083Z,24.80
2022-08-08T12:35:16.780Z,24.80
2022-08-08T12:37:48.096Z,24.18
2022-08-08T12:40:56.337Z,24.76
2022-08-08T12:43:47.532Z,25.22
2022-08-08T12:46:24.943Z,25.23
2022-08-08T12:51:49.920Z,23.86
2022-08-08T12:54:36.088Z,23.66
2022-08-08T12:57:23.389Z,22.97
2022-08-08T13:00:04.157Z,22.70
2022-08-08T13:02:37.012Z,22.41
2022-08-08T13:05:15.628Z,22.88
2022-08-08T13:08:04.127Z,23.61
2022-08-08T13:10:33.010Z,23.17
2022-08-08T13:13:08.066Z,23.81
2022-08-08T13:15:35.866Z,23.79
2022-08-08T13:18:11.494Z,23.82
2022-08-08T13:20:48.792Z,24.17
2022-08-08T13:23:36.481Z,22.76
2022-08-08T13:26:13.297Z,23.37
2022-08-08T13:28:42.786Z,22.93
2022-08-08T13:31:16.672Z,23.42
2022-08-08T13:33:47.319Z,23.68
2022-08-08T13:36:26.005Z,23.78
2022-08-08T13:38:53.658Z,23.72
2022-08-08T13:41:21.848Z,24.38
2022-08-08T13:43:51.192Z,24.12
2022-08-08T13:46:26.399Z,24.21
2022-08-08T13:49:11.193Z,23.77
2022-08-08T13:51:41.802Z,23.96
2022-08-08T13:54:21.592Z,23.99
2022-08-08T13:57:11.260Z,23.41
2022-08-08T13:59:49.178Z,23.69
2022-08-08T14:02:30.946Z,24.65
2022-08-08T14:05:20.252Z,24.44
2022-08-08T14:07:52.440Z,24.51
2022-08-08T14:10:33.066Z,24.48
2022-08-08T14:13:05.678Z,24.40
2022-08-08T14:15:39.627Z,24.91
2022-08-08T14:18:35.602Z,24.24
2022-08-08T14:21:07.896Z,23.45
2022-08-08T14:24:06.679Z,23.88
2022-08-08T14:26:33.593Z,24.30
2022-08-08T14:29:00.545Z,24.84
2022-08-08T14:32:06.051Z,24.48
2022-08-08T14:34:23.154Z,24.44
2022-08-08T14:36:54.743Z,24.55
2022-08-08T14:39:25.006Z,23.93
2022-08-08T14:42:09.427Z,24.67
2022-08-08T14:44:39.504Z,24.97
2022-08-08T14:47:15.347Z,24.93
2022-08-08T14:50:06.685Z,25.15
2022-08-08T14:52:44.648Z,24.60
2022-08-08T14:55:13.405Z,24.75
2022-08-08T14:58:00.941Z,24.44
2022-08-08T15:00:28.498Z,24.14
2022-08-08T15:02:59.152Z,24.28
2022-08-08T15:05:45.338Z,24.03
2022-08-08T15:08:35.283Z,24.24
2022-08-08T15:11:10.513Z,24.05
2022-08-08T15:14:00.985Z,24.49
2022-08-08T15:16:34.604Z,23.91
2022-08-08T15:19:01.950Z,24.73
2022-08-08T15:21:30.259Z,24.47
2022-08-08T15:23:57.192Z,24.51
2022-08-08T15:26:25.689Z,24.27
2022-08-08T15:28:54.604Z,24.45
2022-08-08T15:31:55.651Z,24.67
2022-08-08T15:34:28.888Z,24.66
2022-08-08T15:37:02.284Z,24.77
2022-08-08T15:39:37.434Z,24.88
2022-08-08T15:42:07.051Z,24.13
2022-08-08T15:44:38.518Z,24.24
2022-08-08T15:47:05.700Z,24.01
2022-08-08T15:49:32.279Z,23.85
2022-08-08T15:52:10.918Z,23.21
2022-08-08T15:54:40.511Z,23.58
2022-08-08T15:57:09.038Z,24.03
2022-08-08T16:00:05.426Z,23.67
2022-08-08T16:02:30.575Z,24.35
2022-08-08T16:04:58.887Z,24.29
2022-08-08T16:07:51.464Z,24.34
2022-08-08T16:13:05.263Z,24.50
2022-08-08T16:13:29.193Z,24.15
2022-08-08T16:15:57.141Z,23.89
2022-08-08T16:18:26.306Z,24.35
2022-08-08T16:20:52.937Z,24.22
2022-08-08T16:23:19.535Z,24.54
2022-08-08T16:25:54.460Z,24.52
2022-08-08T16:28:34.832Z,24.29
2022-08-08T16:31:06.427Z,23.91
2022-08-08T16:33:39.096Z,24.33
2022-08-08T16:36:15.864Z,23.73
2022-08-08T16:38:47.588Z,24.44
2022-08-08T16:41:22.472Z,24.26
2022-08-08T16:43:52.239Z,24.85
2022-08-08T16:46:37.434Z,24.49
2022-08-08T16:49:08.831Z,24.17
2022-08-08T16:55:02.065Z,23.67
2022-08-08T16:55:05.580Z,23.46
2022-08-08T16:57:22.987Z,24.80
2022-08-08T16:59:59.472Z,24.15
2022-08-08T17:02:32.554Z,24.35
2022-08-08T17:05:13.942Z,24.03
2022-08-08T17:07:50.641Z,24.18
2022-08-08T17:10:19.268Z,23.65
2022-08-08T17:12:53.138Z,23.88
2022-08-08T17:15:23.106Z,24.19
2022-08-08T17:18:02.847Z,23.54
2022-08-08T17:20:39.548Z,23.87
2022-08-08T17:23:18.502Z,23.67
2022-08-08T17:25:57.510Z,23.67
2022-08-08T17:28:35.343Z,23.02
2022-08-08T17:31:39.569Z,23.49
2022-08-08T17:34:54.367Z,23.78
2022-08-08T17:37:03.519Z,23.87
2022-08-08T17:40:05.067Z,23.94
2022-08-08T17:42:20.676Z,23.80
2022-08-08T17:44:49.983Z,23.56
2022-08-08T17:47:24.039Z,23.75
2022-08-08T17:50:01.214Z,23.64
2022-08-08T17:52:35.645Z,23.33
2022-08-08T17:56:03.266Z,22.89
2022-08-08T17:57:53.040Z,23.01
2022-08-08T18:00:26.021Z,23.32
2022-08-08T18:03:08.347Z,23.75
2022-08-08T18:05:44.091Z,23.44
2022-08-08T18:08:37.734Z,23.59
2022-08-08T18:11:06.810Z,22.79
2022-08-08T18:13:41.458Z,23.10
2022-08-08T18:16:08.984Z,23.53
2022-08-08T18:18:42.985Z,24.28
2022-08-08T18:21:34.429Z,24.74
2022-08-08T18:24:01.867Z,25.04
2022-08-08T18:26:29.691Z,25.47
2022-08-08T18:28:57.622Z,26.08
2022-08-08T18:31:28.418Z,26.56
2022-08-08T18:34:11.883Z,26.53
2022-08-08T18:36:41.621Z,27.23
2022-08-08T18:39:27.269Z,28.43
2022-08-08T18:41:59.915Z,28.86
2022-08-08T18:44:33.167Z,30.05
2022-08-08T18:47:04.022Z,30.85
2022-08-08T18:49:32.640Z,31.26
2022-08-08T18:52:22.843Z,31.45
2022-08-08T18:54:59.683Z,31.62
2022-08-08T18:57:29.247Z,31.54
2022-08-08T18:59:58.830Z,31.96
2022-08-08T19:02:29.930Z,32.12
2022-08-08T19:04:56.852Z,32.89
2022-08-08T19:07:25.531Z,32.98
2022-08-08T19:10:14.485Z,33.44
2022-08-08T19:12:44.467Z,33.63
2022-08-08T19:15:16.729Z,33.49
2022-08-08T19:18:32.078Z,33.90
2022-08-08T19:20:39.230Z,34.05
2022-08-08T19:23:06.837Z,34.18
2022-08-08T19:26:27.062Z,34.13
2022-08-08T19:28:23.566Z,34.34
2022-08-08T19:31:03.875Z,34.79
2022-08-08T19:33:51.777Z,34.66
2022-08-08T19:36:27.729Z,34.72
2022-08-08T19:38:55.907Z,34.86
2022-08-08T19:41:27.466Z,34.89
2022-08-08T19:44:03.323Z,34.65
2022-08-08T19:46:33.196Z,34.93
2022-08-08T19:49:01.260Z,35.54
2022-08-08T19:51:34.015Z,35.82
2022-08-08T19:54:04.986Z,35.42
2022-08-08T19:56:40.276Z,35.83
2022-08-08T19:59:09.660Z,37.21
2022-08-08T20:02:01.450Z,37.38
2022-08-08T20:04:23.702Z,37.79
2022-08-08T20:06:50.985Z,37.82
2022-08-08T20:09:22.811Z,37.70
2022-08-08T20:11:50.680Z,38.10
2022-08-08T20:14:33.653Z,38.17
2022-08-08T20:17:04.680Z,38.70
2022-08-08T20:19:33.479Z,38.83
2022-08-08T20:22:05.000Z,40.44
2022-08-08T20:24:39.608Z,41.98
2022-08-08T20:27:10.626Z,43.02
2022-08-08T20:30:00.224Z,43.61
2022-08-08T20:32:28.419Z,44.18
2022-08-08T20:35:01.177Z,44.52
2022-08-08T20:37:47.079Z,45.07
2022-08-08T20:40:16.608Z,45.55
2022-08-08T20:42:54.133Z,45.74
2022-08-08T20:45:44.703Z,46.07
2022-08-08T20:48:09.280Z,46.50
2022-08-08T20:50:35.819Z,46.76
2022-08-08T20:53:03.739Z,47.38
2022-08-08T20:55:35.905Z,47.68
2022-08-08T20:58:13.722Z,47.74
2022-08-08T21:00:42.445Z,48.20
2022-08-08T21:03:16.725Z,47.91
2022-08-08T21:05:49.142Z,47.97
2022-08-08T21:08:36.653Z,48.38
2022-08-08T21:11:12.196Z,48.48
2022-08-08T21:13:41.042Z,48.88
2022-08-08T21:16:18.092Z,48.67
2022-08-08T21:18:48.314Z,49.48
2022-08-08T21:21:20.606Z,49.74
2022-08-08T21:24:22.287Z,50.41
2022-08-08T21:26:53.471Z,51.15
2022-08-08T21:29:21.701Z,51.28
2022-08-08T21:32:19.341Z,52.14
2022-08-08T21:34:56.757Z,52.30
2022-08-08T21:37:53.040Z,53.14
2022-08-08T21:40:11.506Z,54.19
2022-08-08T21:42:39.371Z,54.62
2022-08-08T21:45:21.261Z,55.49
2022-08-08T21:48:05.441Z,55.73
2022-08-08T21:50:41.986Z,55.98
2022-08-08T21:54:36.225Z,55.91
2022-08-08T21:56:19.397Z,55.95
2022-08-08T21:58:42.628Z,55.76
2022-08-08T22:01:39.275Z,56.11
2022-08-08T22:03:58.139Z,57.56
2022-08-08T22:06:31.189Z,57.25
2022-08-08T22:09:00.143Z,55.24
2022-08-08T22:11:59.173Z,55.21
2022-08-08T22:14:17.467Z,55.75
2022-08-08T22:16:44.561Z,55.46
2022-08-08T22:19:16.283Z,54.85
2022-08-08T22:21:43.202Z,54.47
2022-08-08T22:24:12.191Z,55.59
2022-08-08T22:27:01.363Z,55.83
2022-08-08T22:29:59.242Z,55.93
2022-08-08T22:32:19.436Z,57.33
2022-08-08T22:34:50.940Z,57.69
2022-08-08T22:37:49.455Z,58.89
2022-08-08T22:40:11.633Z,60.95
2022-08-08T22:42:47.067Z,61.67
2022-08-08T22:45:15.419Z,62.41
2022-08-08T22:47:49.105Z,63.00
2022-08-08T22:50:25.077Z,63.17
2022-08-08T22:53:24.137Z,63.94
2022-08-08T22:55:59.687Z,64.03
2022-08-08T22:58:30.928Z,63.53
2022-08-08T23:00:59.731Z,63.12
2022-08-08T23:03:34.383Z,63.65
2022-08-08T23:06:15.910Z,64.45
2022-08-08T23:08:54.605Z,65.34
2022-08-08T23:12:17.254Z,65.65
2022-08-08T23:14:11.592Z,66.26
2022-08-08T23:16:43.555Z,66.64
2022-08-08T23:19:10.946Z,67.14
2022-08-08T23:21:39.152Z,66.98
2022-08-08T23:24:06.689Z,66.95
2022-08-08T23:26:33.967Z,65.91
2022-08-08T23:29:01.423Z,66.52
2022-08-08T23:31:27.883Z,66.65
2022-08-08T23:34:17.660Z,66.83
2022-08-08T23:36:43.602Z,67.18
2022-08-08T23:39:11.500Z,67.51
2022-08-08T23:41:46.300Z,67.99
2022-08-08T23:44:14.161Z,67.89
2022-08-08T23:49:06.766Z,67.22
2022-08-08T23:49:28.257Z,68.03
2022-08-08T23:52:05.544Z,68.73
2022-08-08T23:54:43.209Z,69.97
2022-08-08T23:57:27.495Z,70.73
